createdAt,value
2017-12-04T00:01:26.311Z,16.00
2017-12-04T00:03:53.754Z,14.63
2017-12-04T00:06:21.235Z,19.58
2017-12-04T00:08:48.686Z,18.25
2017-12-04T00:11:16.140Z,18.83
2017-12-04T00:13:43.615Z,17.58
2017-12-04T00:16:11.827Z,20.02
2017-12-04T00:18:39.279Z,17.83
2017-12-04T00:21:06.722Z,17.48
2017-12-04T00:23:34.918Z,15.70
2017-12-04T00:26:02.354Z,14.65
2017-12-04T00:28:29.858Z,10.18
2017-12-04T00:30:57.298Z,12.00
2017-12-04T00:33:24.743Z,14.63
2017-12-04T00:35:52.330Z,10.38
2017-12-04T00:38:19.785Z,11.05
2017-12-04T00:40:47.254Z,9.60
2017-12-04T00:43:14.702Z,11.80
2017-12-04T00:45:42.134Z,13.70
2017-12-04T00:48:09.558Z,12.33
2017-12-04T00:50:37.778Z,13.35
2017-12-04T00:53:05.207Z,9.75
2017-12-04T00:55:32.679Z,12.73
2017-12-04T00:58:00.464Z,9.20
2017-12-04T01:00:27.902Z,7.47
2017-12-04T01:02:55.334Z,10.35
2017-12-04T01:05:22.784Z,14.68
2017-12-04T01:07:50.286Z,15.98
2017-12-04T01:10:17.765Z,16.25
2017-12-04T01:12:45.190Z,12.80
2017-12-04T01:15:12.619Z,9.53
2017-12-04T01:17:40.106Z,14.50
2017-12-04T01:20:07.539Z,8.82
2017-12-04T01:22:34.987Z,11.18
2017-12-04T01:25:02.479Z,11.55
2017-12-04T01:27:29.921Z,12.55
2017-12-04T01:29:57.367Z,14.02
2017-12-04T01:32:24.825Z,13.95
2017-12-04T01:34:52.311Z,11.73
2017-12-04T01:37:19.751Z,14.65
2017-12-04T01:42:29.587Z,15.40
2017-12-04T01:44:57.178Z,9.48
2017-12-04T01:47:24.634Z,10.30
2017-12-04T01:49:52.089Z,15.48
2017-12-04T01:52:19.531Z,10.00
2017-12-04T01:54:46.972Z,13.18
2017-12-04T01:57:14.399Z,10.00
2017-12-04T01:59:42.621Z,11.88
2017-12-04T02:02:10.062Z,12.43
2017-12-04T02:04:37.579Z,9.90
2017-12-04T02:07:04.999Z,15.02
2017-12-04T02:09:32.458Z,14.68
2017-12-04T02:11:59.895Z,10.63
2017-12-04T02:14:27.322Z,13.55
2017-12-04T02:16:55.526Z,15.30
2017-12-04T02:19:22.958Z,9.87
2017-12-04T02:21:50.458Z,13.38
2017-12-04T02:24:17.900Z,7.90
2017-12-04T02:26:45.322Z,14.18
2017-12-04T02:29:12.763Z,13.57
2017-12-04T02:31:41.006Z,11.50
2017-12-04T02:34:08.463Z,11.38
2017-12-04T02:36:35.902Z,7.28
2017-12-04T02:39:03.348Z,11.03
2017-12-04T02:41:30.782Z,7.68
2017-12-04T02:43:58.980Z,8.90
2017-12-04T02:46:26.422Z,10.43
2017-12-04T02:48:53.920Z,8.77
2017-12-04T02:51:21.365Z,12.85
2017-12-04T02:53:48.798Z,12.23
2017-12-04T02:56:16.241Z,12.30
2017-12-04T02:58:43.671Z,12.70
2017-12-04T03:01:11.866Z,16.95
2017-12-04T03:03:39.304Z,14.43
2017-12-04T03:06:06.766Z,13.75
2017-12-04T03:08:34.954Z,17.10
2017-12-04T03:11:02.459Z,19.10
2017-12-04T03:13:29.882Z,15.33
2017-12-04T03:15:57.323Z,18.30
2017-12-04T03:18:24.763Z,9.60
2017-12-04T03:20:53.180Z,14.90
2017-12-04T03:23:20.621Z,15.50
2017-12-04T03:25:48.078Z,12.80
2017-12-04T03:28:15.516Z,13.15
2017-12-04T03:30:42.957Z,12.25
2017-12-04T03:33:11.288Z,11.90
2017-12-04T03:35:38.710Z,8.30
2017-12-04T03:38:06.156Z,8.80
2017-12-04T03:40:33.662Z,7.37
2017-12-04T03:43:01.098Z,11.75
2017-12-04T03:45:28.536Z,11.82
2017-12-04T03:47:56.742Z,12.55
2017-12-04T03:50:24.187Z,8.05
2017-12-04T03:52:51.626Z,8.35
2017-12-04T03:55:19.119Z,8.73
2017-12-04T03:57:46.574Z,11.47
2017-12-04T04:00:14.034Z,9.82
2017-12-04T04:02:41.495Z,10.32
2017-12-04T04:05:08.919Z,7.32
2017-12-04T04:07:36.702Z,8.30
2017-12-04T04:10:04.125Z,6.50
2017-12-04T04:12:31.615Z,10.52
2017-12-04T04:14:59.083Z,7.28
2017-12-04T04:17:26.511Z,8.80
2017-12-04T04:19:53.994Z,8.15
2017-12-04T04:22:21.450Z,9.00
2017-12-04T04:24:48.898Z,8.13
2017-12-04T04:27:16.361Z,10.07
2017-12-04T04:29:43.818Z,9.95
2017-12-04T04:32:11.242Z,5.45
2017-12-04T04:34:38.692Z,11.30
2017-12-04T04:37:06.879Z,9.98
2017-12-04T04:39:34.351Z,10.23
2017-12-04T04:42:01.790Z,10.82
2017-12-04T04:44:29.243Z,6.20
2017-12-04T04:46:56.702Z,8.07
2017-12-04T04:49:24.198Z,9.68
2017-12-04T04:51:51.630Z,8.45
2017-12-04T04:54:19.066Z,8.63
2017-12-04T04:56:46.551Z,11.48
2017-12-04T04:59:13.994Z,6.43
2017-12-04T05:01:41.432Z,10.20
2017-12-04T05:04:08.858Z,14.05
2017-12-04T05:06:36.370Z,10.45
2017-12-04T05:09:03.821Z,6.28
2017-12-04T05:11:31.293Z,9.35
2017-12-04T05:13:58.747Z,11.18
2017-12-04T05:16:26.237Z,9.90
2017-12-04T05:18:53.636Z,13.73
2017-12-04T05:21:21.106Z,10.45
2017-12-04T05:23:48.552Z,10.60
2017-12-04T05:26:15.984Z,7.43
2017-12-04T05:28:43.415Z,6.62
2017-12-04T05:31:11.627Z,9.43
2017-12-04T05:33:39.058Z,13.18
2017-12-04T05:36:07.258Z,9.03
2017-12-04T05:38:34.679Z,9.98
2017-12-04T05:41:02.887Z,11.25
2017-12-04T05:43:30.399Z,9.15
2017-12-04T05:45:58.587Z,9.52
2017-12-04T05:48:26.790Z,8.70
2017-12-04T05:50:54.254Z,12.30
2017-12-04T05:53:21.745Z,9.13
2017-12-04T05:55:49.187Z,7.95
2017-12-04T05:58:16.659Z,11.60
2017-12-04T06:00:44.206Z,8.77
2017-12-04T06:03:11.639Z,9.15
2017-12-04T06:05:39.068Z,10.50
2017-12-04T06:08:07.298Z,10.70
2017-12-04T06:10:34.727Z,11.35
2017-12-04T06:13:02.327Z,8.10
2017-12-04T06:15:29.770Z,10.25
2017-12-04T06:17:57.431Z,9.23
2017-12-04T06:20:24.889Z,10.93
2017-12-04T06:22:52.347Z,9.75
2017-12-04T06:25:20.009Z,13.55
2017-12-04T06:27:47.568Z,9.10
2017-12-04T06:30:15.020Z,13.00
2017-12-04T06:32:42.459Z,13.70
2017-12-04T06:35:09.945Z,13.95
2017-12-04T06:37:37.384Z,13.62
2017-12-04T06:40:04.826Z,8.90
2017-12-04T06:42:32.296Z,8.50
2017-12-04T06:44:59.750Z,12.05
2017-12-04T06:47:27.184Z,9.70
2017-12-04T06:49:54.658Z,10.00
2017-12-04T06:52:22.080Z,8.27
2017-12-04T06:54:49.760Z,10.75
2017-12-04T06:57:17.227Z,9.65
2017-12-04T06:59:44.686Z,11.25
2017-12-04T07:02:12.202Z,9.23
2017-12-04T07:04:39.695Z,11.12
2017-12-04T07:07:07.154Z,12.07
2017-12-04T07:09:34.609Z,12.90
2017-12-04T07:12:02.046Z,10.10
2017-12-04T07:14:29.525Z,12.50
2017-12-04T07:16:57.064Z,10.50
2017-12-04T07:19:24.534Z,12.40
2017-12-04T07:21:51.981Z,9.00
2017-12-04T07:24:19.547Z,9.38
2017-12-04T07:26:47.014Z,8.02
2017-12-04T07:29:14.565Z,10.43
2017-12-04T07:31:42.134Z,7.28
2017-12-04T07:34:09.583Z,9.43
2017-12-04T07:36:37.019Z,10.15
2017-12-04T07:39:04.454Z,15.13
2017-12-04T07:41:31.969Z,11.05
2017-12-04T07:43:59.423Z,8.77
2017-12-04T07:46:26.874Z,11.82
2017-12-04T07:48:54.306Z,13.03
2017-12-04T07:51:21.761Z,16.53
2017-12-04T07:53:49.202Z,19.60
2017-12-04T07:56:16.695Z,15.02
2017-12-04T07:58:44.138Z,11.12
2017-12-04T08:01:11.633Z,10.82
2017-12-04T08:03:39.066Z,12.93
2017-12-04T08:06:06.514Z,12.60
2017-12-04T08:08:34.002Z,11.65
2017-12-04T08:11:01.434Z,10.60
2017-12-04T08:13:28.994Z,9.80
2017-12-04T08:15:56.438Z,12.13
2017-12-04T08:18:23.867Z,7.33
2017-12-04T08:20:51.289Z,9.43
2017-12-04T08:23:18.859Z,9.00
2017-12-04T08:25:46.288Z,10.43
2017-12-04T08:28:13.832Z,9.02
2017-12-04T08:30:41.342Z,11.75
2017-12-04T08:33:09.546Z,7.70
2017-12-04T08:35:36.986Z,12.95
2017-12-04T08:38:04.478Z,8.55
2017-12-04T08:40:31.919Z,9.85
2017-12-04T08:42:59.343Z,10.13
2017-12-04T08:45:26.967Z,11.52
2017-12-04T08:47:54.511Z,12.13
2017-12-04T08:50:21.968Z,11.40
2017-12-04T08:52:49.398Z,11.07
2017-12-04T08:55:16.879Z,9.80
2017-12-04T08:57:44.327Z,7.90
2017-12-04T09:00:11.767Z,9.07
2017-12-04T09:02:39.199Z,8.13
2017-12-04T09:05:06.632Z,9.07
2017-12-04T09:07:34.075Z,8.68
2017-12-04T09:10:01.538Z,11.80
2017-12-04T09:12:28.970Z,7.75
2017-12-04T09:14:56.440Z,6.90
2017-12-04T09:17:23.924Z,9.60
2017-12-04T09:19:51.302Z,13.00
2017-12-04T09:22:18.744Z,11.55
2017-12-04T09:24:46.962Z,14.70
2017-12-04T09:27:14.407Z,11.63
2017-12-04T09:29:41.891Z,9.85
2017-12-04T09:32:09.415Z,11.80
2017-12-04T09:34:36.857Z,9.95
2017-12-04T09:37:04.294Z,11.73
2017-12-04T09:39:32.526Z,11.77
2017-12-04T09:41:59.976Z,11.23
2017-12-04T09:44:27.419Z,9.00
2017-12-04T09:46:54.887Z,8.50
2017-12-04T09:49:22.429Z,11.02
2017-12-04T09:51:49.845Z,9.48
2017-12-04T09:54:18.055Z,11.20
2017-12-04T09:56:45.477Z,8.75
2017-12-04T09:59:12.919Z,6.72
2017-12-04T10:01:40.442Z,11.30
2017-12-04T10:04:07.971Z,11.63
2017-12-04T10:06:35.475Z,8.82
2017-12-04T10:09:02.914Z,7.68
2017-12-04T10:14:10.200Z,9.27
2017-12-04T10:16:37.649Z,7.40
2017-12-04T10:19:05.071Z,8.07
2017-12-04T10:21:33.283Z,8.75
2017-12-04T10:24:00.800Z,10.63
2017-12-04T10:26:28.215Z,10.25
2017-12-04T10:28:55.760Z,9.20
2017-12-04T10:31:23.226Z,8.43
2017-12-04T10:33:50.689Z,8.82
2017-12-04T10:36:18.156Z,8.65
2017-12-04T10:38:45.626Z,8.98
2017-12-04T10:41:13.140Z,7.97
2017-12-04T10:43:40.673Z,9.80
2017-12-04T10:46:08.903Z,6.22
2017-12-04T10:48:36.492Z,6.20
2017-12-04T10:51:03.949Z,7.20
2017-12-04T10:53:31.409Z,8.88
2017-12-04T10:55:59.653Z,7.28
2017-12-04T10:58:27.138Z,8.95
2017-12-04T11:00:54.616Z,7.30
2017-12-04T11:03:22.097Z,11.20
2017-12-04T11:05:49.602Z,8.95
2017-12-04T11:08:17.175Z,5.72
2017-12-04T11:10:44.829Z,4.70
2017-12-04T11:13:12.308Z,6.50
2017-12-04T11:15:39.834Z,7.57
2017-12-04T11:18:07.325Z,8.07
2017-12-04T11:20:34.796Z,9.52
2017-12-04T11:23:02.281Z,6.57
2017-12-04T11:25:29.749Z,7.55
2017-12-04T11:27:57.213Z,8.43
2017-12-04T11:30:24.686Z,6.53
2017-12-04T11:32:52.924Z,4.47
2017-12-04T11:35:20.420Z,8.13
2017-12-04T11:37:48.697Z,6.95
2017-12-04T11:40:16.976Z,6.30
2017-12-04T11:42:45.146Z,7.10
2017-12-04T11:45:12.583Z,7.07
2017-12-04T11:47:40.014Z,6.87
2017-12-04T11:50:07.497Z,11.98
2017-12-04T11:52:34.972Z,9.18
2017-12-04T11:55:03.205Z,7.12
2017-12-04T11:57:30.698Z,5.20
2017-12-04T11:59:58.173Z,9.25
2017-12-04T12:02:25.646Z,10.38
2017-12-04T12:04:53.113Z,10.73
2017-12-04T12:07:20.588Z,8.15
2017-12-04T12:09:48.102Z,6.97
2017-12-04T12:12:15.621Z,10.98
2017-12-04T12:14:43.085Z,11.15
2017-12-04T12:17:10.581Z,5.80
2017-12-04T12:19:38.100Z,7.25
2017-12-04T12:22:05.581Z,11.75
2017-12-04T12:24:33.076Z,5.72
2017-12-04T12:27:00.509Z,7.47
2017-12-04T12:29:27.942Z,7.80
2017-12-04T12:31:56.194Z,6.05
2017-12-04T12:34:23.635Z,5.75
2017-12-04T12:36:51.359Z,7.68
2017-12-04T12:39:18.867Z,5.18
2017-12-04T12:41:46.431Z,7.15
2017-12-04T12:44:13.875Z,8.30
2017-12-04T12:46:41.359Z,5.25
2017-12-04T12:49:08.895Z,10.13
2017-12-04T12:51:36.432Z,6.40
2017-12-04T12:54:03.987Z,7.28
2017-12-04T12:56:31.414Z,7.63
2017-12-04T12:58:58.851Z,4.57
2017-12-04T13:01:26.284Z,5.50
2017-12-04T13:03:53.742Z,6.25
2017-12-04T13:06:21.198Z,5.90
2017-12-04T13:08:48.655Z,6.05
2017-12-04T13:11:16.120Z,5.10
2017-12-04T13:13:43.572Z,5.10
2017-12-04T13:16:11.010Z,5.97
2017-12-04T13:18:38.438Z,7.37
2017-12-04T13:21:05.949Z,7.63
2017-12-04T13:23:33.400Z,6.83
2017-12-04T13:26:00.860Z,6.87
2017-12-04T13:28:28.318Z,7.65
2017-12-04T13:30:55.728Z,8.38
2017-12-04T13:33:35.294Z,7.47
2017-12-04T13:36:14.634Z,9.63
2017-12-04T13:38:42.067Z,7.53
2017-12-04T13:41:09.542Z,9.00
2017-12-04T13:43:37.009Z,7.22
2017-12-04T13:46:04.482Z,6.20
2017-12-04T13:48:31.921Z,4.90
2017-12-04T13:50:59.344Z,8.20
2017-12-04T13:53:26.822Z,8.63
2017-12-04T13:55:54.247Z,7.28
2017-12-04T13:58:21.698Z,8.95
2017-12-04T14:00:49.895Z,7.45
2017-12-04T14:03:17.331Z,8.68
2017-12-04T14:05:44.841Z,7.28
2017-12-04T14:08:12.427Z,5.35
2017-12-04T14:10:39.846Z,6.80
2017-12-04T14:13:07.278Z,6.55
2017-12-04T14:15:34.759Z,8.73
2017-12-04T14:18:02.183Z,6.62
2017-12-04T14:20:29.624Z,7.55
2017-12-04T14:22:57.122Z,7.65
2017-12-04T14:25:24.566Z,6.65
2017-12-04T14:27:52.032Z,5.53
2017-12-04T14:30:19.586Z,6.82
2017-12-04T14:32:47.018Z,7.80
2017-12-04T14:35:14.512Z,6.20
2017-12-04T14:37:41.949Z,6.37
2017-12-04T14:40:09.399Z,9.13
2017-12-04T14:42:36.888Z,7.82
2017-12-04T14:45:04.421Z,8.45
2017-12-04T14:47:32.002Z,6.65
2017-12-04T14:49:59.450Z,5.82
2017-12-04T14:52:26.908Z,5.70
2017-12-04T14:54:54.339Z,7.07
2017-12-04T14:57:21.778Z,9.52
2017-12-04T14:59:49.971Z,8.75
2017-12-04T15:02:17.535Z,10.75
2017-12-04T15:04:44.958Z,9.32
2017-12-04T15:07:12.379Z,9.15
2017-12-04T15:09:39.908Z,7.07
2017-12-04T15:12:12.166Z,10.73
2017-12-04T15:14:39.629Z,8.18
2017-12-04T15:17:07.064Z,9.23
2017-12-04T15:19:35.279Z,7.82
2017-12-04T15:22:02.742Z,6.15
2017-12-04T15:24:30.188Z,6.82
2017-12-04T15:26:57.628Z,5.73
2017-12-04T15:29:25.291Z,6.57
2017-12-04T15:31:52.869Z,7.77
2017-12-04T15:34:20.311Z,8.77
2017-12-04T15:36:47.755Z,9.65
2017-12-04T15:39:15.177Z,7.65
2017-12-04T15:41:43.394Z,8.80
2017-12-04T15:44:10.823Z,9.63
2017-12-04T15:46:39.024Z,7.32
2017-12-04T15:49:06.442Z,5.62
2017-12-04T15:51:34.672Z,8.45
2017-12-04T15:54:02.110Z,8.10
2017-12-04T15:56:29.550Z,10.05
2017-12-04T15:58:57.051Z,5.70
2017-12-04T16:01:24.498Z,11.68
2017-12-04T16:03:51.981Z,8.88
2017-12-04T16:06:19.510Z,12.57
2017-12-04T16:08:46.938Z,8.87
2017-12-04T16:11:14.420Z,7.82
2017-12-04T16:13:41.870Z,10.50
2017-12-04T16:16:09.334Z,7.50
2017-12-04T16:18:36.787Z,10.80
2017-12-04T16:21:04.244Z,10.15
2017-12-04T16:23:31.679Z,6.55
2017-12-04T16:25:59.181Z,9.38
2017-12-04T16:28:26.734Z,8.55
2017-12-04T16:30:54.188Z,6.53
2017-12-04T16:33:21.647Z,7.47
2017-12-04T16:35:49.103Z,9.93
2017-12-04T16:38:16.549Z,10.20
2017-12-04T16:40:43.987Z,12.10
2017-12-04T16:43:11.410Z,9.35
2017-12-04T16:45:38.852Z,7.68
2017-12-04T16:48:07.058Z,11.60
2017-12-04T16:50:34.509Z,10.60
2017-12-04T16:53:01.938Z,11.00
2017-12-04T16:55:30.142Z,15.85
2017-12-04T16:57:57.577Z,10.38
2017-12-04T17:00:25.186Z,8.52
2017-12-04T17:02:52.646Z,7.72
2017-12-04T17:05:20.090Z,10.20
2017-12-04T17:07:49.386Z,8.05
2017-12-04T17:10:16.889Z,9.43
2017-12-04T17:12:44.337Z,9.93
2017-12-04T17:15:11.762Z,11.40
2017-12-04T17:17:39.199Z,11.73
2017-12-04T17:20:06.686Z,9.50
2017-12-04T17:22:34.115Z,8.85
2017-12-04T17:25:01.567Z,10.43
2017-12-04T17:27:29.038Z,11.18
2017-12-04T17:29:56.537Z,9.32
2017-12-04T17:32:24.053Z,8.10
2017-12-04T17:34:52.234Z,5.90
2017-12-04T17:37:19.759Z,7.90
2017-12-04T17:39:47.968Z,8.95
2017-12-04T17:42:15.411Z,11.05
2017-12-04T17:44:42.867Z,5.40
2017-12-04T17:47:10.303Z,9.43
2017-12-04T17:49:37.734Z,11.00
2017-12-04T17:52:05.158Z,6.87
2017-12-04T17:54:32.652Z,9.95
2017-12-04T17:57:00.087Z,8.30
2017-12-04T17:59:27.636Z,12.27
2017-12-04T18:01:55.132Z,7.05
2017-12-04T18:04:22.686Z,6.30
2017-12-04T18:06:50.131Z,6.45
2017-12-04T18:09:17.610Z,10.45
2017-12-04T18:11:46.538Z,7.97
2017-12-04T18:14:13.978Z,8.68
2017-12-04T18:16:42.188Z,7.43
2017-12-04T18:19:09.694Z,8.77
2017-12-04T18:21:37.246Z,11.35
2017-12-04T18:24:04.955Z,12.25
2017-12-04T18:26:32.546Z,8.32
2017-12-04T18:29:00.107Z,8.18
2017-12-04T18:31:27.592Z,12.10
2017-12-04T18:33:55.032Z,9.55
2017-12-04T18:36:22.483Z,10.15
2017-12-04T18:38:49.913Z,9.55
2017-12-04T18:41:17.403Z,10.20
2017-12-04T18:43:44.847Z,11.07
2017-12-04T18:46:12.300Z,11.40
2017-12-04T18:48:39.726Z,9.73
2017-12-04T18:51:07.878Z,9.70
2017-12-04T18:53:36.595Z,13.70
2017-12-04T18:56:04.833Z,10.77
2017-12-04T18:58:32.356Z,13.32
2017-12-04T19:00:59.854Z,13.60
2017-12-04T19:03:28.046Z,9.77
2017-12-04T19:05:56.282Z,10.18
2017-12-04T19:08:23.726Z,10.38
2017-12-04T19:10:51.209Z,9.73
2017-12-04T19:13:18.701Z,10.52
2017-12-04T19:15:46.091Z,11.50
2017-12-04T19:18:13.523Z,9.75
2017-12-04T19:20:40.968Z,10.23
2017-12-04T19:23:09.179Z,11.10
2017-12-04T19:25:36.611Z,14.18
2017-12-04T19:28:04.048Z,10.25
2017-12-04T19:30:32.250Z,8.57
2017-12-04T19:32:59.692Z,9.07
2017-12-04T19:35:27.907Z,10.50
2017-12-04T19:37:55.355Z,10.20
2017-12-04T19:40:22.780Z,10.02
2017-12-04T19:42:51.028Z,12.50
2017-12-04T19:45:18.451Z,11.68
2017-12-04T19:47:45.880Z,12.37
2017-12-04T19:50:13.314Z,14.23
2017-12-04T19:52:43.668Z,16.20
2017-12-04T19:55:11.332Z,12.98
2017-12-04T19:57:38.760Z,10.85
2017-12-04T20:00:06.199Z,10.98
2017-12-04T20:02:33.618Z,13.65
2017-12-04T20:05:01.253Z,9.68
2017-12-04T20:07:28.685Z,14.27
2017-12-04T20:09:56.262Z,11.65
2017-12-04T20:12:23.692Z,12.98
2017-12-04T20:14:51.127Z,14.63
2017-12-04T20:17:18.642Z,14.48
2017-12-04T20:19:46.104Z,14.80
2017-12-04T20:22:13.550Z,12.98
2017-12-04T20:24:41.018Z,11.50
2017-12-04T20:27:08.486Z,16.08
2017-12-04T20:29:35.942Z,12.80
2017-12-04T20:32:03.382Z,17.10
2017-12-04T20:34:30.844Z,17.55
2017-12-04T20:36:58.278Z,14.10
2017-12-04T20:39:25.739Z,14.32
2017-12-04T20:41:53.207Z,14.23
2017-12-04T20:44:20.659Z,11.93
2017-12-04T20:46:48.121Z,14.90
2017-12-04T20:49:15.579Z,15.40
2017-12-04T20:51:43.138Z,14.47
2017-12-04T20:54:10.562Z,17.03
2017-12-04T20:56:38.046Z,14.43
2017-12-04T20:59:05.501Z,14.68
2017-12-04T21:01:32.959Z,16.42
2017-12-04T21:04:00.416Z,20.40
2017-12-04T21:06:27.877Z,15.23
2017-12-04T21:09:07.143Z,18.15
2017-12-04T21:11:48.225Z,14.48
2017-12-04T21:14:28.302Z,18.33
2017-12-04T21:17:07.778Z,17.95
2017-12-04T21:19:35.238Z,19.00
2017-12-04T21:22:02.713Z,16.77
2017-12-04T21:24:30.258Z,16.95
2017-12-04T21:26:57.830Z,15.70
2017-12-04T21:29:25.283Z,17.33
2017-12-04T21:31:52.726Z,14.70
2017-12-04T21:34:20.283Z,16.35
2017-12-04T21:36:47.743Z,16.05
2017-12-04T21:39:15.279Z,19.80
2017-12-04T21:41:42.727Z,16.08
2017-12-04T21:44:10.212Z,18.00
2017-12-04T21:46:37.668Z,23.05
2017-12-04T21:49:05.100Z,20.75
2017-12-04T21:51:32.540Z,20.20
2017-12-04T21:53:59.974Z,19.58
2017-12-04T21:56:27.427Z,21.50
2017-12-04T21:58:54.870Z,16.60
2017-12-04T22:01:22.390Z,21.30
2017-12-04T22:03:49.823Z,16.60
2017-12-04T22:06:17.294Z,17.27
2017-12-04T22:08:44.735Z,18.50
2017-12-04T22:11:12.168Z,15.77
2017-12-04T22:13:39.609Z,13.55
2017-12-04T22:16:07.811Z,20.90
2017-12-04T22:18:35.252Z,18.33
2017-12-04T22:21:02.765Z,13.85
2017-12-04T22:23:30.311Z,18.10
2017-12-04T22:25:57.754Z,14.95
2017-12-04T22:28:25.193Z,14.80
2017-12-04T22:30:52.686Z,17.55
2017-12-04T22:33:21.058Z,15.70
2017-12-04T22:35:48.622Z,13.85
2017-12-04T22:38:16.062Z,13.95
2017-12-04T22:40:43.519Z,12.88
2017-12-04T22:43:10.942Z,13.68
2017-12-04T22:45:39.135Z,14.20
2017-12-04T22:48:06.577Z,11.65
2017-12-04T22:50:34.028Z,12.95
2017-12-04T22:53:01.642Z,11.07
2017-12-04T22:55:29.082Z,11.30
2017-12-04T22:57:56.535Z,10.05
2017-12-04T23:00:29.723Z,8.80
2017-12-04T23:02:57.710Z,11.30
2017-12-04T23:05:25.166Z,11.93
2017-12-04T23:07:52.608Z,11.82
2017-12-04T23:10:20.042Z,11.12
2017-12-04T23:12:48.238Z,10.67
2017-12-04T23:15:15.672Z,9.80
2017-12-04T23:17:43.170Z,12.95
2017-12-04T23:20:11.355Z,12.77
2017-12-04T23:22:38.802Z,10.37
2017-12-04T23:25:06.237Z,11.07
2017-12-04T23:27:33.682Z,12.23
2017-12-04T23:30:01.138Z,10.68
2017-12-04T23:32:28.614Z,13.00
2017-12-04T23:34:56.064Z,12.23
2017-12-04T23:37:23.550Z,14.30
2017-12-04T23:39:51.014Z,9.65
2017-12-04T23:42:18.446Z,11.37
2017-12-04T23:44:45.882Z,8.40
2017-12-04T23:47:13.310Z,9.85
2017-12-04T23:49:40.927Z,7.10
2017-12-04T23:52:08.378Z,6.72
2017-12-04T23:54:35.835Z,7.72
2017-12-04T23:57:03.282Z,6.78
2017-12-04T23:59:30.718Z,7.20
